Terminal Aerodrome Forecast
Issued by NWS Hastings, NE

Home | Current Version | Previous Version | Text Only | Print | Product List | Glossary On
Versions: 1 2 3 4 5 6 7 8 9 10 11 12 13 14 15 16 17 18 19 20 21 22 23 24 25 26 27 28 29 30 31 32
051
FTUS43 KGID 032325
TAFGRI
TAF
KGRI 032325Z 0400/0424 17006KT 4SM BR OVC004
     FM040800 24007KT 1/2SM FG OVC004
     FM041300 27008KT 1 1/2SM BR SCT015
     FM041600 29009KT P6SM SCT100
     FM042300 22007KT P6SM FEW250=

USA.gov is the U.S. government's official web portal to all federal, state and local government web resources and services.